createdAt,value
2023-03-02T00:00:17.136Z,1007.82
2023-03-02T00:01:17.128Z,1007.81
2023-03-02T00:02:17.176Z,1007.81
2023-03-02T00:03:17.140Z,1007.76
2023-03-02T00:04:17.097Z,1007.77
2023-03-02T00:05:17.086Z,1007.83
2023-03-02T00:06:17.128Z,1007.78
2023-03-02T00:07:17.084Z,1007.78
2023-03-02T00:08:22.070Z,1007.81
2023-03-02T00:09:17.101Z,1007.69
2023-03-02T00:10:17.031Z,1007.77
2023-03-02T00:11:17.022Z,1007.68
2023-03-02T00:12:17.053Z,1007.74
2023-03-02T00:13:17.017Z,1007.76
2023-03-02T00:14:17.025Z,1007.70
2023-03-02T00:15:16.979Z,1007.69
2023-03-02T00:16:17.050Z,1007.69
2023-03-02T00:17:16.963Z,1007.77
2023-03-02T00:18:17.015Z,1007.73
2023-03-02T00:19:21.955Z,1007.78
2023-03-02T00:20:16.952Z,1007.82
2023-03-02T00:21:16.936Z,1007.70
2023-03-02T00:22:16.907Z,1007.76
2023-03-02T00:23:16.917Z,1007.77
2023-03-02T00:24:16.900Z,1007.74
2023-03-02T00:25:16.878Z,1007.76
2023-03-02T00:26:16.855Z,1007.77
2023-03-02T00:27:16.868Z,1007.66
2023-03-02T00:28:16.836Z,1007.72
2023-03-02T00:29:16.852Z,1007.74
2023-03-02T00:30:21.877Z,1007.75
2023-03-02T00:31:16.917Z,1007.70
2023-03-02T00:32:16.853Z,1007.70
2023-03-02T00:33:16.785Z,1007.79
2023-03-02T00:34:16.770Z,1007.74
2023-03-02T00:35:16.756Z,1007.74
2023-03-02T00:36:16.773Z,1007.75
2023-03-02T00:37:16.732Z,1007.70
2023-03-02T00:38:16.736Z,1007.71
2023-03-02T00:39:16.711Z,1007.74
2023-03-02T00:40:16.699Z,1007.77
2023-03-02T00:41:21.808Z,1007.70
2023-03-02T00:42:16.699Z,1007.68
2023-03-02T00:43:16.688Z,1007.66
2023-03-02T00:44:16.656Z,1007.67
2023-03-02T00:45:16.676Z,1007.61
2023-03-02T00:46:16.692Z,1007.60
2023-03-02T00:47:16.624Z,1007.61
2023-03-02T00:48:16.641Z,1007.59
2023-03-02T00:49:16.599Z,1007.61
2023-03-02T00:50:16.605Z,1007.66
2023-03-02T00:51:16.579Z,1007.68
2023-03-02T00:52:21.592Z,1007.65
2023-03-02T00:53:16.569Z,1007.68
2023-03-02T00:54:16.564Z,1007.65
2023-03-02T00:55:16.536Z,1007.59
2023-03-02T00:56:16.531Z,1007.57
2023-03-02T00:57:16.511Z,1007.51
2023-03-02T00:58:16.521Z,1007.61
2023-03-02T00:59:16.496Z,1007.64
2023-03-02T01:00:16.500Z,1007.58
2023-03-02T01:01:18.602Z,1007.60
2023-03-02T01:02:16.483Z,1007.55
2023-03-02T01:03:21.501Z,1007.52
2023-03-02T01:04:16.437Z,1007.46
2023-03-02T01:05:16.426Z,1007.52
2023-03-02T01:06:16.431Z,1007.51
2023-03-02T01:07:16.414Z,1007.49
2023-03-02T01:08:16.401Z,1007.42
2023-03-02T01:09:16.384Z,1007.47
2023-03-02T01:10:16.374Z,1007.48
2023-03-02T01:11:16.379Z,1007.44
2023-03-02T01:12:16.374Z,1007.47
2023-03-02T01:13:16.352Z,1007.36
2023-03-02T01:14:21.354Z,1007.42
2023-03-02T01:15:16.329Z,1007.38
2023-03-02T01:16:16.402Z,1007.40
2023-03-02T01:17:16.377Z,1007.45
2023-03-02T01:18:16.314Z,1007.37
2023-03-02T01:19:16.278Z,1007.41
2023-03-02T01:20:16.261Z,1007.40
2023-03-02T01:21:16.260Z,1007.37
2023-03-02T01:22:16.250Z,1007.41
2023-03-02T01:23:16.245Z,1007.38
2023-03-02T01:24:16.296Z,1007.41
2023-03-02T01:25:21.238Z,1007.41
2023-03-02T01:26:16.201Z,1007.43
2023-03-02T01:27:16.190Z,1007.37
2023-03-02T01:28:16.189Z,1007.47
2023-03-02T01:29:16.170Z,1007.45
2023-03-02T01:30:16.180Z,1007.40
2023-03-02T01:31:16.195Z,1007.36
2023-03-02T01:32:16.161Z,1007.39
2023-03-02T01:33:16.206Z,1007.43
2023-03-02T01:34:16.115Z,1007.37
2023-03-02T01:35:16.123Z,1007.35
2023-03-02T01:36:21.144Z,1007.37
2023-03-02T01:37:16.079Z,1007.32
2023-03-02T01:38:16.158Z,1007.32
2023-03-02T01:39:16.224Z,1007.30
2023-03-02T01:40:16.054Z,1007.24
2023-03-02T01:41:16.049Z,1007.31
2023-03-02T01:42:16.042Z,1007.28
2023-03-02T01:43:16.025Z,1007.27
2023-03-02T01:44:16.009Z,1007.27
2023-03-02T01:45:15.997Z,1007.26
2023-03-02T01:46:15.978Z,1007.31
2023-03-02T01:47:20.994Z,1007.22
2023-03-02T01:48:15.987Z,1007.21
2023-03-02T01:49:15.974Z,1007.17
2023-03-02T01:50:15.942Z,1007.20
2023-03-02T01:51:16.011Z,1007.25
2023-03-02T01:52:15.924Z,1007.17
2023-03-02T01:53:15.939Z,1007.14
2023-03-02T01:54:15.967Z,1007.18
2023-03-02T01:55:15.886Z,1007.12
2023-03-02T01:56:15.876Z,1007.17
2023-03-02T01:57:15.861Z,1007.12
2023-03-02T01:58:20.878Z,1007.13
2023-03-02T01:59:15.841Z,1007.12
2023-03-02T02:00:15.847Z,1007.06
2023-03-02T02:01:15.967Z,1007.05
2023-03-02T02:02:15.803Z,1006.99
2023-03-02T02:03:15.797Z,1006.98
2023-03-02T02:04:15.826Z,1007.02
2023-03-02T02:05:15.805Z,1006.93
2023-03-02T02:06:15.817Z,1006.98
2023-03-02T02:07:15.748Z,1006.95
2023-03-02T02:08:15.740Z,1007.05
2023-03-02T02:09:20.761Z,1006.98
2023-03-02T02:10:15.712Z,1006.98
2023-03-02T02:11:15.706Z,1006.90
2023-03-02T02:12:15.710Z,1006.93
2023-03-02T02:13:15.684Z,1006.88
2023-03-02T02:14:15.689Z,1006.93
2023-03-02T02:15:15.659Z,1006.94
2023-03-02T02:16:15.676Z,1006.94
2023-03-02T02:17:15.638Z,1006.93
2023-03-02T02:18:15.646Z,1006.84
2023-03-02T02:19:15.627Z,1006.90
2023-03-02T02:20:20.700Z,1006.88
2023-03-02T02:21:15.605Z,1006.88
2023-03-02T02:22:15.590Z,1006.87
2023-03-02T02:23:15.574Z,1006.82
2023-03-02T02:24:15.585Z,1006.85
2023-03-02T02:25:15.563Z,1006.84
2023-03-02T02:26:15.540Z,1006.89
2023-03-02T02:27:15.529Z,1006.81
2023-03-02T02:28:15.552Z,1006.84
2023-03-02T02:29:15.518Z,1006.83
2023-03-02T02:30:15.499Z,1006.85
2023-03-02T02:31:20.577Z,1006.76
2023-03-02T02:32:15.705Z,1006.73
2023-03-02T02:33:15.462Z,1006.78
2023-03-02T02:34:15.490Z,1006.77
2023-03-02T02:35:15.442Z,1006.79
2023-03-02T02:36:15.454Z,1006.75
2023-03-02T02:37:15.428Z,1006.76
2023-03-02T02:38:15.409Z,1006.73
2023-03-02T02:39:15.393Z,1006.73
2023-03-02T02:40:15.398Z,1006.71
2023-03-02T02:41:15.408Z,1006.72
2023-03-02T02:42:20.388Z,1006.71
2023-03-02T02:43:15.383Z,1006.65
2023-03-02T02:44:15.345Z,1006.66
2023-03-02T02:45:15.339Z,1006.65
2023-03-02T02:46:15.362Z,1006.68
2023-03-02T02:47:15.309Z,1006.66
2023-03-02T02:48:15.301Z,1006.68
2023-03-02T02:49:15.310Z,1006.70
2023-03-02T02:50:15.292Z,1006.75
2023-03-02T02:51:15.266Z,1006.71
2023-03-02T02:52:15.392Z,1006.78
2023-03-02T02:53:20.283Z,1006.69
2023-03-02T02:54:15.244Z,1006.76
2023-03-02T02:55:15.269Z,1006.76
2023-03-02T02:56:15.228Z,1006.77
2023-03-02T02:57:15.201Z,1006.77
2023-03-02T02:58:15.190Z,1006.73
2023-03-02T02:59:15.178Z,1006.79
2023-03-02T03:00:15.184Z,1006.74
2023-03-02T03:01:15.280Z,1006.74
2023-03-02T03:02:15.144Z,1006.75
2023-03-02T03:03:15.138Z,1006.69
2023-03-02T03:04:20.216Z,1006.80
2023-03-02T03:05:15.152Z,1006.75
2023-03-02T03:06:15.102Z,1006.76
2023-03-02T03:07:15.109Z,1006.75
2023-03-02T03:08:15.101Z,1006.76
2023-03-02T03:09:15.081Z,1006.70
2023-03-02T03:10:15.070Z,1006.71
2023-03-02T03:11:15.046Z,1006.72
2023-03-02T03:12:15.038Z,1006.70
2023-03-02T03:13:15.063Z,1006.67
2023-03-02T03:14:15.017Z,1006.69
2023-03-02T03:15:20.057Z,1006.69
2023-03-02T03:16:15.106Z,1006.70
2023-03-02T03:17:14.994Z,1006.70
2023-03-02T03:18:14.968Z,1006.73
2023-03-02T03:19:14.980Z,1006.70
2023-03-02T03:20:14.956Z,1006.71
2023-03-02T03:21:14.943Z,1006.65
2023-03-02T03:22:14.933Z,1006.73
2023-03-02T03:23:14.915Z,1006.70
2023-03-02T03:24:14.920Z,1006.74
2023-03-02T03:25:14.909Z,1006.64
2023-03-02T03:26:19.909Z,1006.66
2023-03-02T03:27:14.867Z,1006.65
2023-03-02T03:28:14.857Z,1006.63
2023-03-02T03:29:14.844Z,1006.66
2023-03-02T03:30:14.847Z,1006.68
2023-03-02T03:31:14.906Z,1006.68
2023-03-02T03:32:14.868Z,1006.69
2023-03-02T03:33:14.802Z,1006.61
2023-03-02T03:34:14.794Z,1006.69
2023-03-02T03:35:14.781Z,1006.61
2023-03-02T03:36:14.781Z,1006.65
2023-03-02T03:37:19.818Z,1006.76
2023-03-02T03:38:14.741Z,1006.69
2023-03-02T03:39:14.737Z,1006.72
2023-03-02T03:40:14.815Z,1006.56
2023-03-02T03:41:14.738Z,1006.68
2023-03-02T03:42:14.699Z,1006.65
2023-03-02T03:43:14.711Z,1006.70
2023-03-02T03:44:14.676Z,1006.73
2023-03-02T03:45:14.670Z,1006.68
2023-03-02T03:46:14.698Z,1006.73
2023-03-02T03:47:14.648Z,1006.66
2023-03-02T03:48:19.654Z,1006.73
2023-03-02T03:49:14.646Z,1006.70
2023-03-02T03:50:14.613Z,1006.69
2023-03-02T03:51:14.613Z,1006.70
2023-03-02T03:52:14.588Z,1006.71
2023-03-02T03:53:14.586Z,1006.76
2023-03-02T03:54:14.568Z,1006.73
2023-03-02T03:55:14.585Z,1006.68
2023-03-02T03:56:14.587Z,1006.70
2023-03-02T03:57:14.537Z,1006.76
2023-03-02T03:58:14.557Z,1006.69
2023-03-02T03:59:19.536Z,1006.66
2023-03-02T04:00:14.500Z,1006.72
2023-03-02T04:01:14.541Z,1006.75
2023-03-02T04:02:14.495Z,1006.75
2023-03-02T04:03:14.469Z,1006.75
2023-03-02T04:04:14.458Z,1006.82
2023-03-02T04:05:14.443Z,1006.77
2023-03-02T04:06:14.467Z,1006.78
2023-03-02T04:07:14.487Z,1006.74
2023-03-02T04:08:14.481Z,1006.71
2023-03-02T04:09:14.450Z,1006.69
2023-03-02T04:10:19.415Z,1006.76
2023-03-02T04:11:14.404Z,1006.75
2023-03-02T04:12:14.392Z,1006.82
2023-03-02T04:13:14.384Z,1006.73
2023-03-02T04:14:14.369Z,1006.72
2023-03-02T04:15:14.338Z,1006.71
2023-03-02T04:16:14.379Z,1006.79
2023-03-02T04:17:14.317Z,1006.76
2023-03-02T04:18:14.301Z,1006.75
2023-03-02T04:19:14.291Z,1006.76
2023-03-02T04:20:14.302Z,1006.74
2023-03-02T04:21:19.310Z,1006.77
2023-03-02T04:22:14.256Z,1006.80
2023-03-02T04:23:14.246Z,1006.81
2023-03-02T04:24:14.253Z,1006.77
2023-03-02T04:25:14.228Z,1006.75
2023-03-02T04:26:14.242Z,1006.79
2023-03-02T04:27:14.248Z,1006.78
2023-03-02T04:28:16.515Z,1006.81
2023-03-02T04:29:14.191Z,1006.80
2023-03-02T04:30:14.177Z,1006.82
2023-03-02T04:31:14.241Z,1006.84
2023-03-02T04:32:19.279Z,1006.82
2023-03-02T04:33:14.181Z,1006.86
2023-03-02T04:34:14.133Z,1006.84
2023-03-02T04:35:14.124Z,1006.82
2023-03-02T04:36:14.130Z,1006.82
2023-03-02T04:37:14.105Z,1006.86
2023-03-02T04:38:14.097Z,1006.85
2023-03-02T04:39:14.092Z,1006.83
2023-03-02T04:40:14.077Z,1006.78
2023-03-02T04:41:14.131Z,1006.80
2023-03-02T04:42:14.152Z,1006.80
2023-03-02T04:43:19.084Z,1006.77
2023-03-02T04:44:14.050Z,1006.82
2023-03-02T04:45:14.038Z,1006.81
2023-03-02T04:46:14.034Z,1006.79
2023-03-02T04:47:14.000Z,1006.91
2023-03-02T04:48:13.992Z,1006.94
2023-03-02T04:49:13.980Z,1006.86
2023-03-02T04:50:13.974Z,1006.88
2023-03-02T04:51:14.005Z,1006.87
2023-03-02T04:52:13.952Z,1006.84
2023-03-02T04:53:13.934Z,1006.88
2023-03-02T04:54:18.954Z,1006.88
2023-03-02T04:55:13.918Z,1006.84
2023-03-02T04:56:13.911Z,1006.91
2023-03-02T04:57:13.919Z,1006.88
2023-03-02T04:58:13.882Z,1006.89
2023-03-02T04:59:13.888Z,1006.91
2023-03-02T05:00:13.867Z,1006.91
2023-03-02T05:01:13.863Z,1006.90
2023-03-02T05:02:13.988Z,1006.90
2023-03-02T05:03:13.848Z,1006.86
2023-03-02T05:04:13.835Z,1006.88
2023-03-02T05:05:18.837Z,1006.90
2023-03-02T05:06:13.803Z,1006.89
2023-03-02T05:07:13.784Z,1006.88
2023-03-02T05:08:13.771Z,1006.90
2023-03-02T05:09:13.786Z,1006.86
2023-03-02T05:10:13.745Z,1006.84
2023-03-02T05:11:13.756Z,1006.82
2023-03-02T05:12:13.726Z,1006.83
2023-03-02T05:13:13.718Z,1006.85
2023-03-02T05:14:13.710Z,1006.79
2023-03-02T05:15:13.733Z,1006.81
2023-03-02T05:16:18.785Z,1006.88
2023-03-02T05:17:13.681Z,1006.87
2023-03-02T05:18:13.666Z,1006.93
2023-03-02T05:19:13.649Z,1006.89
2023-03-02T05:20:13.636Z,1006.85
2023-03-02T05:21:13.646Z,1006.87
2023-03-02T05:22:13.624Z,1006.82
2023-03-02T05:23:13.621Z,1006.83
2023-03-02T05:24:13.619Z,1006.80
2023-03-02T05:25:13.582Z,1006.75
2023-03-02T05:26:13.575Z,1006.79
2023-03-02T05:27:18.626Z,1006.76
2023-03-02T05:28:13.548Z,1006.71
2023-03-02T05:29:13.545Z,1006.83
2023-03-02T05:30:13.529Z,1006.86
2023-03-02T05:31:13.623Z,1006.78
2023-03-02T05:32:13.593Z,1006.80
2023-03-02T05:33:13.538Z,1006.73
2023-03-02T05:34:13.483Z,1006.72
2023-03-02T05:35:14.254Z,1006.77
2023-03-02T05:36:13.468Z,1006.82
2023-03-02T05:37:13.461Z,1006.82
2023-03-02T05:38:18.460Z,1006.81
2023-03-02T05:39:13.468Z,1006.79
2023-03-02T05:40:13.419Z,1006.82
2023-03-02T05:41:13.406Z,1006.83
2023-03-02T05:42:13.403Z,1006.74
2023-03-02T05:43:13.383Z,1006.81
2023-03-02T05:44:13.373Z,1006.79
2023-03-02T05:45:13.387Z,1006.82
2023-03-02T05:46:13.357Z,1006.82
2023-03-02T05:47:13.451Z,1006.72
2023-03-02T05:48:13.330Z,1006.73
2023-03-02T05:49:18.346Z,1006.78
2023-03-02T05:50:13.318Z,1006.86
2023-03-02T05:51:13.340Z,1006.86
2023-03-02T05:52:13.300Z,1006.85
2023-03-02T05:53:13.288Z,1006.83
2023-03-02T05:54:13.264Z,1006.82
2023-03-02T05:55:13.271Z,1006.88
2023-03-02T05:56:13.239Z,1006.84
2023-03-02T05:57:13.272Z,1006.89
2023-03-02T05:58:13.219Z,1006.83
2023-03-02T05:59:13.208Z,1006.82
2023-03-02T06:00:18.237Z,1006.88
2023-03-02T06:01:15.387Z,1006.83
2023-03-02T06:02:13.228Z,1006.88
2023-03-02T06:03:13.293Z,1006.81
2023-03-02T06:04:13.165Z,1006.99
2023-03-02T06:05:13.140Z,1006.93
2023-03-02T06:06:13.130Z,1006.86
2023-03-02T06:07:13.126Z,1006.87
2023-03-02T06:08:13.113Z,1007.00
2023-03-02T06:09:13.121Z,1007.02
2023-03-02T06:10:13.082Z,1006.94
2023-03-02T06:11:18.102Z,1006.90
2023-03-02T06:12:13.074Z,1006.89
2023-03-02T06:13:13.051Z,1006.87
2023-03-02T06:14:13.040Z,1006.89
2023-03-02T06:15:13.051Z,1006.85
2023-03-02T06:16:13.094Z,1006.83
2023-03-02T06:17:13.041Z,1006.87
2023-03-02T06:18:12.998Z,1006.92
2023-03-02T06:19:13.110Z,1006.88
2023-03-02T06:20:12.995Z,1006.92
2023-03-02T06:21:12.988Z,1006.92
2023-03-02T06:22:17.985Z,1007.01
2023-03-02T06:23:12.945Z,1007.00
2023-03-02T06:24:12.933Z,1006.96
2023-03-02T06:25:12.921Z,1006.99
2023-03-02T06:26:12.938Z,1006.98
2023-03-02T06:27:12.934Z,1006.96
2023-03-02T06:28:12.893Z,1007.02
2023-03-02T06:29:13.353Z,1007.01
2023-03-02T06:30:12.871Z,1007.02
2023-03-02T06:31:12.854Z,1007.03
2023-03-02T06:32:13.004Z,1007.01
2023-03-02T06:33:17.881Z,1007.09
2023-03-02T06:34:12.821Z,1007.09
2023-03-02T06:35:12.896Z,1007.01
2023-03-02T06:36:12.968Z,1006.97
2023-03-02T06:37:12.813Z,1006.97
2023-03-02T06:38:12.777Z,1007.03
2023-03-02T06:39:12.783Z,1007.03
2023-03-02T06:40:12.755Z,1007.08
2023-03-02T06:41:12.751Z,1007.10
2023-03-02T06:42:12.750Z,1007.08
2023-03-02T06:43:12.723Z,1007.12
2023-03-02T06:44:17.745Z,1007.07
2023-03-02T06:45:12.754Z,1007.10
2023-03-02T06:46:12.798Z,1007.06
2023-03-02T06:47:12.682Z,1007.06
2023-03-02T06:48:12.678Z,1007.12
2023-03-02T06:49:14.190Z,1007.10
2023-03-02T06:50:12.654Z,1007.04
2023-03-02T06:51:12.735Z,1007.02
2023-03-02T06:52:12.629Z,1007.04
2023-03-02T06:53:12.623Z,1007.14
2023-03-02T06:54:12.605Z,1007.08
2023-03-02T06:55:17.618Z,1007.05
2023-03-02T06:56:12.583Z,1007.08
2023-03-02T06:57:12.593Z,1007.12
2023-03-02T06:58:12.574Z,1007.10
2023-03-02T06:59:12.548Z,1007.16
2023-03-02T07:00:12.538Z,1007.09
2023-03-02T07:01:12.592Z,1007.12
2023-03-02T07:02:12.536Z,1007.02
2023-03-02T07:03:12.543Z,1007.10
2023-03-02T07:04:12.495Z,1007.17
2023-03-02T07:05:12.497Z,1007.16
2023-03-02T07:06:17.516Z,1007.20
2023-03-02T07:07:12.461Z,1007.16
2023-03-02T07:08:12.456Z,1007.20
2023-03-02T07:09:12.466Z,1007.16
2023-03-02T07:10:12.433Z,1007.17
2023-03-02T07:11:12.414Z,1007.15
2023-03-02T07:12:12.406Z,1007.13
2023-03-02T07:13:12.407Z,1007.13
2023-03-02T07:14:12.386Z,1007.10
2023-03-02T07:15:12.488Z,1007.13
2023-03-02T07:16:12.366Z,1007.11
2023-03-02T07:17:17.379Z,1007.07
2023-03-02T07:18:12.351Z,1007.13
2023-03-02T07:19:12.328Z,1007.09
2023-03-02T07:20:12.320Z,1007.06
2023-03-02T07:21:12.331Z,1007.05
2023-03-02T07:22:12.316Z,1007.10
2023-03-02T07:23:12.356Z,1007.14
2023-03-02T07:24:12.273Z,1007.12
2023-03-02T07:25:12.276Z,1007.12
2023-03-02T07:26:12.248Z,1007.15
2023-03-02T07:27:12.256Z,1007.11
2023-03-02T07:28:17.264Z,1007.15
2023-03-02T07:29:12.226Z,1007.16
2023-03-02T07:30:12.219Z,1007.13
2023-03-02T07:31:12.262Z,1007.17
2023-03-02T07:32:12.724Z,1007.14
2023-03-02T07:33:12.212Z,1007.22
2023-03-02T07:34:12.169Z,1007.18
2023-03-02T07:35:12.166Z,1007.18
2023-03-02T07:36:12.158Z,1007.21
2023-03-02T07:37:12.127Z,1007.27
2023-03-02T07:38:12.181Z,1007.19
2023-03-02T07:39:17.158Z,1007.26
2023-03-02T07:40:12.110Z,1007.24
2023-03-02T07:41:12.086Z,1007.25
2023-03-02T07:42:12.073Z,1007.24
2023-03-02T07:43:12.074Z,1007.24
2023-03-02T07:44:12.054Z,1007.29
2023-03-02T07:45:12.067Z,1007.27
2023-03-02T07:46:12.082Z,1007.25
2023-03-02T07:47:12.029Z,1007.28
2023-03-02T07:48:12.021Z,1007.28
2023-03-02T07:49:11.998Z,1007.29
2023-03-02T07:50:17.026Z,1007.29
2023-03-02T07:51:11.987Z,1007.29
2023-03-02T07:52:11.968Z,1007.27
2023-03-02T07:53:11.963Z,1007.34
2023-03-02T07:54:11.989Z,1007.31
2023-03-02T07:55:11.947Z,1007.25
2023-03-02T07:56:11.936Z,1007.28
2023-03-02T07:57:11.926Z,1007.30
2023-03-02T07:58:11.909Z,1007.25
2023-03-02T07:59:11.900Z,1007.27
2023-03-02T08:00:11.893Z,1007.25
2023-03-02T08:01:16.892Z,1007.24
2023-03-02T08:02:11.890Z,1007.31
2023-03-02T08:03:11.958Z,1007.29
2023-03-02T08:04:11.835Z,1007.23
2023-03-02T08:05:11.826Z,1007.17
2023-03-02T08:06:11.838Z,1007.15
2023-03-02T08:07:11.803Z,1007.16
2023-03-02T08:08:11.798Z,1007.22
2023-03-02T08:09:11.802Z,1007.24
2023-03-02T08:10:11.784Z,1007.19
2023-03-02T08:11:11.760Z,1007.21
2023-03-02T08:12:16.774Z,1007.19
2023-03-02T08:13:11.751Z,1007.24
2023-03-02T08:14:11.726Z,1007.30
2023-03-02T08:15:11.744Z,1007.25
2023-03-02T08:16:11.722Z,1007.31
2023-03-02T08:17:11.696Z,1007.26
2023-03-02T08:18:11.683Z,1007.28
2023-03-02T08:19:11.678Z,1007.26
2023-03-02T08:20:11.667Z,1007.30
2023-03-02T08:21:11.679Z,1007.30
2023-03-02T08:22:11.636Z,1007.24
2023-03-02T08:23:16.647Z,1007.26
2023-03-02T08:24:11.627Z,1007.30
2023-03-02T08:25:11.627Z,1007.31
2023-03-02T08:26:13.832Z,1007.27
2023-03-02T08:27:11.603Z,1007.24
2023-03-02T08:28:11.567Z,1007.27
2023-03-02T08:29:11.568Z,1007.29
2023-03-02T08:30:11.545Z,1007.26
2023-03-02T08:31:11.594Z,1007.27
2023-03-02T08:32:11.763Z,1007.30
2023-03-02T08:33:11.531Z,1007.29
2023-03-02T08:34:16.540Z,1007.33
2023-03-02T08:35:11.491Z,1007.28
2023-03-02T08:36:11.553Z,1007.25
2023-03-02T08:37:11.468Z,1007.22
2023-03-02T08:38:11.461Z,1007.23
2023-03-02T08:39:11.501Z,1007.16
2023-03-02T08:40:11.439Z,1007.24
2023-03-02T08:41:11.428Z,1007.28
2023-03-02T08:42:11.448Z,1007.19
2023-03-02T08:43:11.408Z,1007.14
2023-03-02T08:44:11.398Z,1007.23
2023-03-02T08:45:16.443Z,1007.23
2023-03-02T08:46:11.464Z,1007.03
2023-03-02T08:47:11.364Z,1007.13
2023-03-02T08:48:11.350Z,1007.15
2023-03-02T08:49:11.339Z,1007.12
2023-03-02T08:50:11.325Z,1007.15
2023-03-02T08:51:11.328Z,1007.13
2023-03-02T08:52:11.299Z,1007.09
2023-03-02T08:53:11.284Z,1007.10
2023-03-02T08:54:11.292Z,1007.12
2023-03-02T08:55:11.301Z,1007.17
2023-03-02T08:56:16.276Z,1007.14
2023-03-02T08:57:11.267Z,1007.07
2023-03-02T08:58:11.255Z,1007.11
2023-03-02T08:59:11.243Z,1007.10
2023-03-02T09:00:11.206Z,1007.12
2023-03-02T09:01:11.247Z,1007.15
2023-03-02T09:02:11.187Z,1007.11
2023-03-02T09:03:11.196Z,1007.11
2023-03-02T09:04:11.253Z,1007.11
2023-03-02T09:05:11.212Z,1007.09
2023-03-02T09:06:11.138Z,1007.10
2023-03-02T09:07:16.606Z,1007.07
2023-03-02T09:08:11.127Z,1007.02
2023-03-02T09:09:11.183Z,1007.05
2023-03-02T09:10:11.099Z,1007.01
2023-03-02T09:11:11.088Z,1007.01
2023-03-02T09:12:11.079Z,1007.01
2023-03-02T09:13:11.063Z,1007.02
2023-03-02T09:14:11.247Z,1007.03
2023-03-02T09:15:11.047Z,1006.97
2023-03-02T09:16:11.041Z,1007.00
2023-03-02T09:17:11.015Z,1006.98
2023-03-02T09:18:16.038Z,1006.96
2023-03-02T09:19:11.004Z,1006.94
2023-03-02T09:20:10.992Z,1007.00
2023-03-02T09:21:11.016Z,1006.96
2023-03-02T09:22:10.961Z,1007.03
2023-03-02T09:23:10.951Z,1007.02
2023-03-02T09:24:10.964Z,1007.02
2023-03-02T09:25:10.932Z,1007.08
2023-03-02T09:26:10.921Z,1007.05
2023-03-02T09:27:10.931Z,1006.98
2023-03-02T09:28:10.898Z,1006.99
2023-03-02T09:29:15.964Z,1006.97
2023-03-02T09:30:10.877Z,1007.05
2023-03-02T09:31:10.862Z,1007.02
2023-03-02T09:32:11.241Z,1006.95
2023-03-02T09:33:10.912Z,1007.01
2023-03-02T09:34:10.865Z,1007.02
2023-03-02T09:35:10.824Z,1007.00
2023-03-02T09:36:10.815Z,1006.92
2023-03-02T09:37:10.801Z,1006.93
2023-03-02T09:38:10.856Z,1006.93
2023-03-02T09:39:10.869Z,1006.88
2023-03-02T09:40:15.812Z,1006.86
2023-03-02T09:41:10.751Z,1006.93
2023-03-02T09:42:10.753Z,1006.94
2023-03-02T09:43:10.728Z,1006.98
2023-03-02T09:44:10.722Z,1006.96
2023-03-02T09:45:10.755Z,1006.95
2023-03-02T09:46:10.768Z,1006.99
2023-03-02T09:47:10.696Z,1006.91
2023-03-02T09:48:10.684Z,1006.88
2023-03-02T09:49:10.667Z,1006.91
2023-03-02T09:50:10.677Z,1006.92
2023-03-02T09:51:15.687Z,1006.95
2023-03-02T09:52:10.701Z,1006.99
2023-03-02T09:53:10.623Z,1006.93
2023-03-02T09:54:10.644Z,1007.02
2023-03-02T09:55:10.627Z,1006.99
2023-03-02T09:56:10.584Z,1007.01
2023-03-02T09:57:10.613Z,1007.05
2023-03-02T09:58:10.570Z,1006.95
2023-03-02T09:59:10.549Z,1006.93
2023-03-02T10:00:19.191Z,1006.98
2023-03-02T10:01:10.549Z,1007.04
2023-03-02T10:02:15.546Z,1006.98
2023-03-02T10:03:16.985Z,1006.97
2023-03-02T10:04:10.605Z,1006.86
2023-03-02T10:05:10.486Z,1006.93
2023-03-02T10:06:10.477Z,1006.95
2023-03-02T10:07:10.458Z,1006.92
2023-03-02T10:08:10.458Z,1006.90
2023-03-02T10:09:10.448Z,1006.89
2023-03-02T10:10:10.435Z,1007.00
2023-03-02T10:11:10.415Z,1006.97
2023-03-02T10:12:10.429Z,1007.00
2023-03-02T10:13:15.414Z,1006.91
2023-03-02T10:14:10.383Z,1006.90
2023-03-02T10:15:10.399Z,1006.90
2023-03-02T10:16:10.533Z,1006.90
2023-03-02T10:17:10.372Z,1006.89
2023-03-02T10:18:10.351Z,1006.81
2023-03-02T10:19:10.325Z,1006.85
2023-03-02T10:20:10.332Z,1006.85
2023-03-02T10:21:10.318Z,1006.88
2023-03-02T10:22:10.292Z,1006.79
2023-03-02T10:23:10.278Z,1006.78
2023-03-02T10:24:15.294Z,1006.84
2023-03-02T10:25:10.264Z,1006.82
2023-03-02T10:26:10.252Z,1006.83
2023-03-02T10:27:10.262Z,1006.82
2023-03-02T10:28:10.223Z,1006.86
2023-03-02T10:29:10.213Z,1006.86
2023-03-02T10:30:10.224Z,1006.85
2023-03-02T10:31:10.290Z,1006.88
2023-03-02T10:32:10.238Z,1006.83
2023-03-02T10:33:10.196Z,1006.88
2023-03-02T10:34:10.160Z,1006.76
2023-03-02T10:35:15.180Z,1006.78
2023-03-02T10:36:10.135Z,1006.80
2023-03-02T10:37:10.132Z,1006.79
2023-03-02T10:38:10.115Z,1006.85
2023-03-02T10:39:10.164Z,1006.90
2023-03-02T10:40:10.093Z,1006.89
2023-03-02T10:41:10.083Z,1006.91
2023-03-02T10:42:10.108Z,1006.81
2023-03-02T10:43:10.057Z,1006.91
2023-03-02T10:44:10.044Z,1006.90
2023-03-02T10:45:10.048Z,1006.96
2023-03-02T10:46:15.084Z,1006.88
2023-03-02T10:47:10.008Z,1006.87
2023-03-02T10:48:10.007Z,1006.77
2023-03-02T10:49:10.019Z,1006.77
2023-03-02T10:50:09.986Z,1006.76
2023-03-02T10:51:10.003Z,1006.77
2023-03-02T10:52:09.954Z,1006.71
2023-03-02T10:53:09.945Z,1006.81
2023-03-02T10:54:09.935Z,1006.69
2023-03-02T10:55:09.917Z,1006.70
2023-03-02T10:56:09.922Z,1006.65
2023-03-02T10:57:14.982Z,1006.49
2023-03-02T10:58:09.899Z,1006.51
2023-03-02T10:59:09.873Z,1006.61
2023-03-02T11:00:09.862Z,1006.58
2023-03-02T11:01:09.915Z,1006.63
2023-03-02T11:02:09.847Z,1006.51
2023-03-02T11:03:09.839Z,1006.47
2023-03-02T11:04:09.875Z,1006.48
2023-03-02T11:05:09.833Z,1006.48
2023-03-02T11:06:09.804Z,1006.41
2023-03-02T11:07:09.786Z,1006.38
2023-03-02T11:08:14.791Z,1006.40
2023-03-02T11:09:09.779Z,1006.35
2023-03-02T11:10:09.748Z,1006.39
2023-03-02T11:11:09.749Z,1006.35
2023-03-02T11:12:09.798Z,1006.51
2023-03-02T11:13:09.719Z,1006.45
2023-03-02T11:14:09.702Z,1006.46
2023-03-02T11:15:09.714Z,1006.45
2023-03-02T11:16:09.742Z,1006.53
2023-03-02T11:17:09.675Z,1006.49
2023-03-02T11:18:09.656Z,1006.44
2023-03-02T11:19:14.667Z,1006.40
2023-03-02T11:20:09.642Z,1006.41
2023-03-02T11:21:09.665Z,1006.37
2023-03-02T11:22:09.612Z,1006.29
2023-03-02T11:23:09.605Z,1006.34
2023-03-02T11:24:10.515Z,1006.34
2023-03-02T11:25:09.576Z,1006.43
2023-03-02T11:26:09.572Z,1006.42
2023-03-02T11:27:09.567Z,1006.43
2023-03-02T11:28:09.548Z,1006.34
2023-03-02T11:29:09.531Z,1006.29
2023-03-02T11:30:14.541Z,1006.33
2023-03-02T11:31:09.573Z,1006.29
2023-03-02T11:32:09.553Z,1006.30
2023-03-02T11:33:09.549Z,1006.34
2023-03-02T11:34:17.323Z,1006.32
2023-03-02T11:35:09.478Z,1006.27
2023-03-02T11:36:09.450Z,1006.30
2023-03-02T11:37:09.475Z,1006.28
2023-03-02T11:38:09.451Z,1006.31
2023-03-02T11:39:09.423Z,1006.28
2023-03-02T11:40:09.427Z,1006.27
2023-03-02T11:41:14.417Z,1006.25
2023-03-02T11:42:09.435Z,1006.22
2023-03-02T11:43:09.376Z,1006.27
2023-03-02T11:44:09.362Z,1006.25
2023-03-02T11:45:09.350Z,1006.29
2023-03-02T11:46:21.154Z,1006.37
2023-03-02T11:47:09.463Z,1006.33
2023-03-02T11:48:09.347Z,1006.30
2023-03-02T11:49:09.305Z,1006.38
2023-03-02T11:50:09.297Z,1006.32
2023-03-02T11:51:09.285Z,1006.28
2023-03-02T11:52:16.031Z,1006.24
2023-03-02T11:53:09.288Z,1006.25
2023-03-02T11:54:09.267Z,1006.20
2023-03-02T11:55:09.239Z,1006.10
2023-03-02T11:56:09.228Z,1006.16
2023-03-02T11:57:09.232Z,1006.11
2023-03-02T11:58:09.212Z,1006.05
2023-03-02T11:59:09.216Z,1006.03
2023-03-02T12:00:09.192Z,1006.07
2023-03-02T12:01:09.206Z,1006.02
2023-03-02T12:02:09.210Z,1006.04
2023-03-02T12:03:14.172Z,1006.00
2023-03-02T12:04:09.136Z,1006.02
2023-03-02T12:05:09.201Z,1006.02